sensor_id;sensor_type;location;lat;lon;timestamp;temperature;humidity
63325;SHT31;49451;52.390;13.028;2023-04-15T04:02:10;8.67;98.43
63325;SHT31;49451;52.390;13.028;2023-04-15T04:04:35;8.70;98.54
63325;SHT31;49451;52.390;13.028;2023-04-15T04:07:01;8.72;98.16
63325;SHT31;49451;52.390;13.028;2023-04-15T04:09:26;8.61;98.68
63325;SHT31;49451;52.390;13.028;2023-04-15T04:11:52;8.78;98.28
63325;SHT31;49451;52.390;13.028;2023-04-15T04:14:17;8.81;98.19
63325;SHT31;49451;52.390;13.028;2023-04-15T04:16:42;8.49;99.38
63325;SHT31;49451;52.390;13.028;2023-04-15T04:19:08;8.54;99.25
63325;SHT31;49451;52.390;13.028;2023-04-15T04:21:34;8.59;99.19
63325;SHT31;49451;52.390;13.028;2023-04-15T04:24:00;8.70;98.67
63325;SHT31;49451;52.390;13.028;2023-04-15T04:26:26;8.78;98.32
63325;SHT31;49451;52.390;13.028;2023-04-15T04:28:51;8.82;98.27
63325;SHT31;49451;52.390;13.028;2023-04-15T04:31:17;8.81;98.16
63325;SHT31;49451;52.390;13.028;2023-04-15T04:33:43;8.77;98.47
63325;SHT31;49451;52.390;13.028;2023-04-15T04:36:08;8.77;98.86
63325;SHT31;49451;52.390;13.028;2023-04-15T04:38:33;8.70;98.72
63325;SHT31;49451;52.390;13.028;2023-04-15T04:40:59;8.64;99.11
63325;SHT31;49451;52.390;13.028;2023-04-15T04:43:24;8.77;98.68
63325;SHT31;49451;52.390;13.028;2023-04-15T04:45:50;8.91;98.33
63325;SHT31;49451;52.390;13.028;2023-04-15T04:48:16;8.80;98.65
63325;SHT31;49451;52.390;13.028;2023-04-15T04:50:41;8.87;98.38
63325;SHT31;49451;52.390;13.028;2023-04-15T04:53:07;8.70;99.00
63325;SHT31;49451;52.390;13.028;2023-04-15T04:55:33;8.72;99.16
63325;SHT31;49451;52.390;13.028;2023-04-15T04:58:01;8.80;98.71
63325;SHT31;49451;52.390;13.028;2023-04-15T05:00:26;8.81;98.75
63325;SHT31;49451;52.390;13.028;2023-04-15T05:02:52;8.72;99.00
63325;SHT31;49451;52.390;13.028;2023-04-15T05:05:17;8.74;99.27
63325;SHT31;49451;52.390;13.028;2023-04-15T05:07:43;8.85;98.68
63325;SHT31;49451;52.390;13.028;2023-04-15T05:10:09;8.71;99.24
63325;SHT31;49451;52.390;13.028;2023-04-15T05:12:35;8.70;99.45
63325;SHT31;49451;52.390;13.028;2023-04-15T05:15:01;8.65;99.49
63325;SHT31;49451;52.390;13.028;2023-04-15T05:17:27;8.68;99.40
63325;SHT31;49451;52.390;13.028;2023-04-15T05:19:52;8.84;99.04
63325;SHT31;49451;52.390;13.028;2023-04-15T05:22:17;8.85;98.94
63325;SHT31;49451;52.390;13.028;2023-04-15T05:24:43;8.87;98.76
63325;SHT31;49451;52.390;13.028;2023-04-15T05:27:08;8.84;98.91
63325;SHT31;49451;52.390;13.028;2023-04-15T05:29:35;8.82;98.99
63325;SHT31;49451;52.390;13.028;2023-04-15T05:32:01;8.89;98.87
63325;SHT31;49451;52.390;13.028;2023-04-15T05:34:26;9.01;98.65
63325;SHT31;49451;52.390;13.028;2023-04-15T05:36:52;8.89;98.81
63325;SHT31;49451;52.390;13.028;2023-04-15T05:39:17;9.01;98.78
63325;SHT31;49451;52.390;13.028;2023-04-15T05:41:43;8.92;99.01
63325;SHT31;49451;52.390;13.028;2023-04-15T05:44:08;8.95;99.05
63325;SHT31;49451;52.390;13.028;2023-04-15T05:46:33;9.08;98.67
63325;SHT31;49451;52.390;13.028;2023-04-15T05:49:00;9.11;98.49
63325;SHT31;49451;52.390;13.028;2023-04-15T05:51:25;9.15;98.51
63325;SHT31;49451;52.390;13.028;2023-04-15T05:53:51;9.14;98.53
63325;SHT31;49451;52.390;13.028;2023-04-15T05:56:16;9.23;98.25
63325;SHT31;49451;52.390;13.028;2023-04-15T05:58:42;9.37;98.07
63325;SHT31;49451;52.390;13.028;2023-04-15T06:01:07;9.18;98.49
63325;SHT31;49451;52.390;13.028;2023-04-15T06:03:32;9.30;98.42
63325;SHT31;49451;52.390;13.028;2023-04-15T06:05:58;9.26;98.92
63325;SHT31;49451;52.390;13.028;2023-04-15T06:08:25;9.48;98.12
63325;SHT31;49451;52.390;13.028;2023-04-15T06:10:50;9.56;97.77
63325;SHT31;49451;52.390;13.028;2023-04-15T06:13:15;9.58;97.90
63325;SHT31;49451;52.390;13.028;2023-04-15T06:15:41;9.78;97.68
63325;SHT31;49451;52.390;13.028;2023-04-15T06:18:06;9.91;97.24
63325;SHT31;49451;52.390;13.028;2023-04-15T06:20:32;9.91;97.05
63325;SHT31;49451;52.390;13.028;2023-04-15T06:22:57;9.97;97.24
63325;SHT31;49451;52.390;13.028;2023-04-15T06:25:22;10.06;96.56
63325;SHT31;49451;52.390;13.028;2023-04-15T06:27:48;10.08;96.92
63325;SHT31;49451;52.390;13.028;2023-04-15T06:30:13;9.95;97.28
63325;SHT31;49451;52.390;13.028;2023-04-15T06:32:39;10.02;96.94
63325;SHT31;49451;52.390;13.028;2023-04-15T06:35:04;9.99;96.85
63325;SHT31;49451;52.390;13.028;2023-04-15T06:37:30;10.22;96.49
63325;SHT31;49451;52.390;13.028;2023-04-15T06:39:55;10.28;96.87
63325;SHT31;49451;52.390;13.028;2023-04-15T06:42:21;10.26;96.62
63325;SHT31;49451;52.390;13.028;2023-04-15T06:44:47;10.30;96.35
63325;SHT31;49451;52.390;13.028;2023-04-15T06:47:12;10.61;95.55
63325;SHT31;49451;52.390;13.028;2023-04-15T06:49:39;10.78;94.81
63325;SHT31;49451;52.390;13.028;2023-04-15T06:52:04;11.00;94.49
63325;SHT31;49451;52.390;13.028;2023-04-15T06:54:30;11.18;94.02
63325;SHT31;49451;52.390;13.028;2023-04-15T06:56:55;11.23;93.25
63325;SHT31;49451;52.390;13.028;2023-04-15T06:59:20;11.05;94.11
63325;SHT31;49451;52.390;13.028;2023-04-15T07:01:46;11.25;93.80
63325;SHT31;49451;52.390;13.028;2023-04-15T07:04:11;11.29;93.63
63325;SHT31;49451;52.390;13.028;2023-04-15T07:06:37;11.38;93.26
63325;SHT31;49451;52.390;13.028;2023-04-15T07:09:02;11.18;92.61
63325;SHT31;49451;52.390;13.028;2023-04-15T07:11:29;11.46;92.76
63325;SHT31;49451;52.390;13.028;2023-04-15T07:13:54;11.66;91.69
63325;SHT31;49451;52.390;13.028;2023-04-15T07:16:20;11.79;92.10
63325;SHT31;49451;52.390;13.028;2023-04-15T07:18:46;12.02;91.51
63325;SHT31;49451;52.390;13.028;2023-04-15T07:21:11;11.84;91.13
63325;SHT31;49451;52.390;13.028;2023-04-15T07:23:36;11.43;91.11
63325;SHT31;49451;52.390;13.028;2023-04-15T07:26:02;11.42;91.71
63325;SHT31;49451;52.390;13.028;2023-04-15T07:28:28;11.32;92.94
63325;SHT31;49451;52.390;13.028;2023-04-15T07:30:54;11.52;92.02
63325;SHT31;49451;52.390;13.028;2023-04-15T07:33:21;11.18;92.69
63325;SHT31;49451;52.390;13.028;2023-04-15T07:35:46;11.21;93.10
63325;SHT31;49451;52.390;13.028;2023-04-15T07:38:12;11.33;92.26
63325;SHT31;49451;52.390;13.028;2023-04-15T07:40:38;11.50;92.56
63325;SHT31;49451;52.390;13.028;2023-04-15T07:43:03;11.52;91.56
63325;SHT31;49451;52.390;13.028;2023-04-15T07:45:29;11.52;92.07
63325;SHT31;49451;52.390;13.028;2023-04-15T07:47:55;11.28;91.98
63325;SHT31;49451;52.390;13.028;2023-04-15T07:50:20;11.46;91.81
63325;SHT31;49451;52.390;13.028;2023-04-15T07:52:47;11.33;91.41
63325;SHT31;49451;52.390;13.028;2023-04-15T07:55:13;11.42;91.27
63325;SHT31;49451;52.390;13.028;2023-04-15T07:57:39;11.32;92.15
63325;SHT31;49451;52.390;13.028;2023-04-15T08:00:05;11.26;91.55
63325;SHT31;49451;52.390;13.028;2023-04-15T08:02:32;11.29;92.27
63325;SHT31;49451;52.390;13.028;2023-04-15T08:04:57;11.33;92.30
63325;SHT31;49451;52.390;13.028;2023-04-15T08:07:23;11.19;91.76
63325;SHT31;49451;52.390;13.028;2023-04-15T08:09:49;11.28;91.23
63325;SHT31;49451;52.390;13.028;2023-04-15T08:12:15;11.38;91.26
63325;SHT31;49451;52.390;13.028;2023-04-15T08:14:40;11.28;91.03
63325;SHT31;49451;52.390;13.028;2023-04-15T08:17:06;10.97;91.77
63325;SHT31;49451;52.390;13.028;2023-04-15T08:19:32;11.10;92.42
63325;SHT31;49451;52.390;13.028;2023-04-15T08:21:58;11.23;92.23
63325;SHT31;49451;52.390;13.028;2023-04-15T08:24:24;11.18;92.39
63325;SHT31;49451;52.390;13.028;2023-04-15T08:26:50;11.16;91.91
63325;SHT31;49451;52.390;13.028;2023-04-15T08:29:16;10.88;92.09
63325;SHT31;49451;52.390;13.028;2023-04-15T08:31:41;10.88;92.44
63325;SHT31;49451;52.390;13.028;2023-04-15T08:34:07;11.04;91.48
63325;SHT31;49451;52.390;13.028;2023-04-15T08:36:33;11.12;91.36
63325;SHT31;49451;52.390;13.028;2023-04-15T08:38:58;11.12;91.19
63325;SHT31;49451;52.390;13.028;2023-04-15T08:41:31;11.26;92.05
63325;SHT31;49451;52.390;13.028;2023-04-15T08:44:03;11.18;90.78
63325;SHT31;49451;52.390;13.028;2023-04-15T08:46:30;11.05;91.74
63325;SHT31;49451;52.390;13.028;2023-04-15T08:48:57;11.14;90.86
63325;SHT31;49451;52.390;13.028;2023-04-15T08:51:22;11.11;90.62
63325;SHT31;49451;52.390;13.028;2023-04-15T08:53:48;11.14;90.33
63325;SHT31;49451;52.390;13.028;2023-04-15T08:56:14;11.03;89.63
63325;SHT31;49451;52.390;13.028;2023-04-15T08:58:42;11.01;90.64
63325;SHT31;49451;52.390;13.028;2023-04-15T09:01:08;10.97;91.33
63325;SHT31;49451;52.390;13.028;2023-04-15T09:03:34;10.94;91.47
63325;SHT31;49451;52.390;13.028;2023-04-15T09:05:59;11.00;90.85
63325;SHT31;49451;52.390;13.028;2023-04-15T09:08:25;10.97;91.12
